sensor_id;sensor_type;location;lat;lon;timestamp;P1;durP1;ratioP1;P2;durP2;ratioP2
32824;SDS011;51060;42.640;24.356;2023-04-03T00:00:22;22.40;;;14.83;;
32824;SDS011;51060;42.640;24.356;2023-04-03T00:02:47;20.13;;;14.70;;
32824;SDS011;51060;42.640;24.356;2023-04-03T00:05:13;23.60;;;15.77;;
32824;SDS011;51060;42.640;24.356;2023-04-03T00:07:39;17.80;;;12.53;;
32824;SDS011;51060;42.640;24.356;2023-04-03T00:10:04;17.97;;;12.57;;
32824;SDS011;51060;42.640;24.356;2023-04-03T00:12:30;22.30;;;13.47;;
32824;SDS011;51060;42.640;24.356;2023-04-03T00:14:56;25.60;;;15.17;;
32824;SDS011;51060;42.640;24.356;2023-04-03T00:17:21;22.00;;;14.57;;
32824;SDS011;51060;42.640;24.356;2023-04-03T00:19:47;19.63;;;13.90;;
32824;SDS011;51060;42.640;24.356;2023-04-03T00:22:13;22.87;;;15.47;;
32824;SDS011;51060;42.640;24.356;2023-04-03T00:24:38;27.37;;;17.07;;
32824;SDS011;51060;42.640;24.356;2023-04-03T00:27:04;23.37;;;15.50;;
32824;SDS011;51060;42.640;24.356;2023-04-03T00:29:29;22.23;;;14.03;;
32824;SDS011;51060;42.640;24.356;2023-04-03T00:31:55;21.20;;;14.27;;
32824;SDS011;51060;42.640;24.356;2023-04-03T00:34:21;18.30;;;11.03;;
32824;SDS011;51060;42.640;24.356;2023-04-03T00:36:46;10.17;;;7.47;;
32824;SDS011;51060;42.640;24.356;2023-04-03T00:39:12;28.43;;;17.73;;
32824;SDS011;51060;42.640;24.356;2023-04-03T00:41:37;39.47;;;22.97;;
32824;SDS011;51060;42.640;24.356;2023-04-03T00:44:22;18.93;;;14.17;;
32824;SDS011;51060;42.640;24.356;2023-04-03T00:47:00;15.43;;;12.13;;
32824;SDS011;51060;42.640;24.356;2023-04-03T00:49:27;15.27;;;11.73;;
32824;SDS011;51060;42.640;24.356;2023-04-03T00:51:53;18.67;;;13.90;;
32824;SDS011;51060;42.640;24.356;2023-04-03T00:54:19;18.83;;;12.50;;
32824;SDS011;51060;42.640;24.356;2023-04-03T00:56:45;14.47;;;11.93;;
32824;SDS011;51060;42.640;24.356;2023-04-03T00:59:18;15.10;;;10.43;;
32824;SDS011;51060;42.640;24.356;2023-04-03T01:02:05;12.80;;;8.63;;
32824;SDS011;51060;42.640;24.356;2023-04-03T01:04:38;10.40;;;8.13;;
32824;SDS011;51060;42.640;24.356;2023-04-03T01:09:31;11.53;;;9.23;;
32824;SDS011;51060;42.640;24.356;2023-04-03T01:17:37;12.07;;;8.50;;
32824;SDS011;51060;42.640;24.356;2023-04-03T01:25:39;13.47;;;9.80;;
32824;SDS011;51060;42.640;24.356;2023-04-03T01:28:07;14.30;;;10.20;;
32824;SDS011;51060;42.640;24.356;2023-04-03T01:30:36;17.57;;;11.83;;
32824;SDS011;51060;42.640;24.356;2023-04-03T01:33:09;6.13;;;5.33;;
32824;SDS011;51060;42.640;24.356;2023-04-03T01:35:35;8.00;;;6.37;;
32824;SDS011;51060;42.640;24.356;2023-04-03T01:38:00;7.40;;;6.10;;
32824;SDS011;51060;42.640;24.356;2023-04-03T01:40:26;10.07;;;8.77;;
32824;SDS011;51060;42.640;24.356;2023-04-03T01:42:52;13.23;;;10.87;;
32824;SDS011;51060;42.640;24.356;2023-04-03T01:45:17;13.90;;;10.70;;
32824;SDS011;51060;42.640;24.356;2023-04-03T01:47:43;12.37;;;9.87;;
32824;SDS011;51060;42.640;24.356;2023-04-03T01:50:08;14.80;;;10.30;;
32824;SDS011;51060;42.640;24.356;2023-04-03T01:52:34;12.53;;;10.13;;
32824;SDS011;51060;42.640;24.356;2023-04-03T01:54:59;17.67;;;11.67;;
32824;SDS011;51060;42.640;24.356;2023-04-03T01:57:25;18.20;;;12.83;;
32824;SDS011;51060;42.640;24.356;2023-04-03T01:59:51;20.43;;;12.37;;
32824;SDS011;51060;42.640;24.356;2023-04-03T02:02:16;15.20;;;10.07;;
32824;SDS011;51060;42.640;24.356;2023-04-03T02:04:42;18.23;;;12.23;;
32824;SDS011;51060;42.640;24.356;2023-04-03T02:07:08;21.60;;;14.57;;
32824;SDS011;51060;42.640;24.356;2023-04-03T02:09:33;17.57;;;13.07;;
32824;SDS011;51060;42.640;24.356;2023-04-03T02:11:59;13.67;;;10.00;;
32824;SDS011;51060;42.640;24.356;2023-04-03T02:14:24;7.70;;;6.37;;
32824;SDS011;51060;42.640;24.356;2023-04-03T02:16:52;8.13;;;5.97;;
32824;SDS011;51060;42.640;24.356;2023-04-03T02:19:18;7.53;;;6.50;;
32824;SDS011;51060;42.640;24.356;2023-04-03T02:21:43;16.83;;;10.50;;
32824;SDS011;51060;42.640;24.356;2023-04-03T02:24:09;12.67;;;8.87;;
32824;SDS011;51060;42.640;24.356;2023-04-03T02:26:35;14.13;;;9.90;;
32824;SDS011;51060;42.640;24.356;2023-04-03T02:29:00;16.13;;;10.70;;
32824;SDS011;51060;42.640;24.356;2023-04-03T02:31:26;14.03;;;10.23;;
32824;SDS011;51060;42.640;24.356;2023-04-03T02:33:52;14.57;;;10.60;;
32824;SDS011;51060;42.640;24.356;2023-04-03T02:36:17;14.90;;;10.50;;
32824;SDS011;51060;42.640;24.356;2023-04-03T02:38:43;11.27;;;8.23;;
32824;SDS011;51060;42.640;24.356;2023-04-03T02:41:09;9.03;;;6.87;;
32824;SDS011;51060;42.640;24.356;2023-04-03T02:43:36;16.67;;;11.87;;
32824;SDS011;51060;42.640;24.356;2023-04-03T02:46:02;14.60;;;9.57;;
32824;SDS011;51060;42.640;24.356;2023-04-03T02:48:28;17.57;;;10.33;;
32824;SDS011;51060;42.640;24.356;2023-04-03T02:50:54;14.77;;;10.30;;
32824;SDS011;51060;42.640;24.356;2023-04-03T02:53:19;12.97;;;8.90;;
32824;SDS011;51060;42.640;24.356;2023-04-03T02:55:45;11.50;;;8.90;;
32824;SDS011;51060;42.640;24.356;2023-04-03T02:58:10;21.63;;;13.13;;
32824;SDS011;51060;42.640;24.356;2023-04-03T03:00:36;35.77;;;20.77;;
32824;SDS011;51060;42.640;24.356;2023-04-03T03:03:02;45.37;;;29.10;;
32824;SDS011;51060;42.640;24.356;2023-04-03T03:05:28;47.57;;;29.33;;
32824;SDS011;51060;42.640;24.356;2023-04-03T03:07:54;35.03;;;25.47;;
32824;SDS011;51060;42.640;24.356;2023-04-03T03:10:20;31.17;;;22.53;;
32824;SDS011;51060;42.640;24.356;2023-04-03T03:12:46;27.27;;;19.83;;
32824;SDS011;51060;42.640;24.356;2023-04-03T03:15:12;48.63;;;31.63;;
32824;SDS011;51060;42.640;24.356;2023-04-03T03:17:38;37.50;;;27.80;;
32824;SDS011;51060;42.640;24.356;2023-04-03T03:20:05;41.43;;;28.40;;
32824;SDS011;51060;42.640;24.356;2023-04-03T03:22:31;45.73;;;29.27;;
32824;SDS011;51060;42.640;24.356;2023-04-03T03:24:56;43.57;;;29.23;;
32824;SDS011;51060;42.640;24.356;2023-04-03T03:27:22;44.17;;;29.67;;
32824;SDS011;51060;42.640;24.356;2023-04-03T03:29:49;61.87;;;36.20;;
32824;SDS011;51060;42.640;24.356;2023-04-03T03:32:14;111.70;;;55.63;;
32824;SDS011;51060;42.640;24.356;2023-04-03T03:34:40;310.07;;;120.60;;
32824;SDS011;51060;42.640;24.356;2023-04-03T03:37:06;212.37;;;89.03;;
32824;SDS011;51060;42.640;24.356;2023-04-03T03:39:31;121.30;;;58.17;;
32824;SDS011;51060;42.640;24.356;2023-04-03T03:41:57;45.23;;;27.03;;
32824;SDS011;51060;42.640;24.356;2023-04-03T03:44:22;37.83;;;21.40;;
32824;SDS011;51060;42.640;24.356;2023-04-03T03:46:48;33.10;;;18.93;;
32824;SDS011;51060;42.640;24.356;2023-04-03T03:49:13;42.47;;;30.50;;
32824;SDS011;51060;42.640;24.356;2023-04-03T03:51:39;54.40;;;34.73;;
32824;SDS011;51060;42.640;24.356;2023-04-03T03:54:05;46.07;;;30.40;;
32824;SDS011;51060;42.640;24.356;2023-04-03T03:56:31;41.17;;;26.97;;
32824;SDS011;51060;42.640;24.356;2023-04-03T03:58:57;40.67;;;26.67;;
32824;SDS011;51060;42.640;24.356;2023-04-03T04:01:23;51.17;;;34.63;;
32824;SDS011;51060;42.640;24.356;2023-04-03T04:03:49;45.70;;;30.23;;
32824;SDS011;51060;42.640;24.356;2023-04-03T04:06:15;40.17;;;27.93;;
32824;SDS011;51060;42.640;24.356;2023-04-03T04:08:41;37.67;;;24.93;;
32824;SDS011;51060;42.640;24.356;2023-04-03T04:11:07;37.03;;;23.63;;
32824;SDS011;51060;42.640;24.356;2023-04-03T04:13:33;26.37;;;18.70;;
32824;SDS011;51060;42.640;24.356;2023-04-03T04:15:58;29.63;;;20.47;;
32824;SDS011;51060;42.640;24.356;2023-04-03T04:18:24;39.83;;;26.47;;
32824;SDS011;51060;42.640;24.356;2023-04-03T04:20:50;43.80;;;29.43;;
32824;SDS011;51060;42.640;24.356;2023-04-03T04:23:16;41.63;;;27.87;;
32824;SDS011;51060;42.640;24.356;2023-04-03T04:25:46;45.47;;;29.80;;
32824;SDS011;51060;42.640;24.356;2023-04-03T04:28:12;46.07;;;31.50;;
32824;SDS011;51060;42.640;24.356;2023-04-03T04:30:37;44.37;;;31.30;;
32824;SDS011;51060;42.640;24.356;2023-04-03T04:33:03;53.13;;;36.00;;
32824;SDS011;51060;42.640;24.356;2023-04-03T04:35:29;56.63;;;38.43;;
32824;SDS011;51060;42.640;24.356;2023-04-03T04:37:54;69.57;;;43.43;;
32824;SDS011;51060;42.640;24.356;2023-04-03T04:40:20;70.87;;;44.67;;
32824;SDS011;51060;42.640;24.356;2023-04-03T04:42:46;57.57;;;38.30;;
32824;SDS011;51060;42.640;24.356;2023-04-03T04:45:12;55.23;;;38.17;;
32824;SDS011;51060;42.640;24.356;2023-04-03T04:47:37;79.20;;;54.87;;
32824;SDS011;51060;42.640;24.356;2023-04-03T04:50:03;72.87;;;52.17;;
32824;SDS011;51060;42.640;24.356;2023-04-03T04:52:29;68.47;;;47.50;;
32824;SDS011;51060;42.640;24.356;2023-04-03T04:54:55;55.77;;;41.10;;
32824;SDS011;51060;42.640;24.356;2023-04-03T04:57:21;64.47;;;44.47;;
32824;SDS011;51060;42.640;24.356;2023-04-03T04:59:47;91.67;;;62.90;;
32824;SDS011;51060;42.640;24.356;2023-04-03T05:02:12;61.80;;;45.20;;
32824;SDS011;51060;42.640;24.356;2023-04-03T05:04:38;68.93;;;48.53;;
32824;SDS011;51060;42.640;24.356;2023-04-03T05:07:03;50.87;;;34.33;;
32824;SDS011;51060;42.640;24.356;2023-04-03T05:09:29;48.10;;;36.97;;
32824;SDS011;51060;42.640;24.356;2023-04-03T05:11:55;54.40;;;38.63;;
32824;SDS011;51060;42.640;24.356;2023-04-03T05:14:21;47.90;;;35.20;;
32824;SDS011;51060;42.640;24.356;2023-04-03T05:16:47;46.07;;;33.60;;
32824;SDS011;51060;42.640;24.356;2023-04-03T05:19:12;54.93;;;38.10;;
32824;SDS011;51060;42.640;24.356;2023-04-03T05:21:38;44.23;;;32.07;;
32824;SDS011;51060;42.640;24.356;2023-04-03T05:24:04;57.57;;;39.73;;
32824;SDS011;51060;42.640;24.356;2023-04-03T05:26:30;51.10;;;36.90;;
32824;SDS011;51060;42.640;24.356;2023-04-03T05:28:56;49.63;;;34.03;;
32824;SDS011;51060;42.640;24.356;2023-04-03T05:31:22;48.70;;;35.40;;
32824;SDS011;51060;42.640;24.356;2023-04-03T05:33:48;42.67;;;29.50;;
32824;SDS011;51060;42.640;24.356;2023-04-03T05:36:13;45.33;;;31.30;;
32824;SDS011;51060;42.640;24.356;2023-04-03T05:38:39;44.87;;;32.17;;
32824;SDS011;51060;42.640;24.356;2023-04-03T05:41:05;43.03;;;32.33;;
32824;SDS011;51060;42.640;24.356;2023-04-03T05:43:30;49.77;;;35.30;;
32824;SDS011;51060;42.640;24.356;2023-04-03T05:45:56;46.33;;;35.57;;
32824;SDS011;51060;42.640;24.356;2023-04-03T05:48:22;71.20;;;47.57;;
32824;SDS011;51060;42.640;24.356;2023-04-03T05:50:48;39.70;;;28.63;;
32824;SDS011;51060;42.640;24.356;2023-04-03T05:53:18;35.03;;;27.30;;
32824;SDS011;51060;42.640;24.356;2023-04-03T05:55:46;47.70;;;36.23;;
32824;SDS011;51060;42.640;24.356;2023-04-03T05:58:11;54.47;;;40.00;;
32824;SDS011;51060;42.640;24.356;2023-04-03T06:00:40;50.30;;;37.97;;
32824;SDS011;51060;42.640;24.356;2023-04-03T06:03:05;50.03;;;37.53;;
32824;SDS011;51060;42.640;24.356;2023-04-03T06:05:31;51.87;;;37.07;;
32824;SDS011;51060;42.640;24.356;2023-04-03T06:07:57;43.10;;;32.93;;
32824;SDS011;51060;42.640;24.356;2023-04-03T06:10:22;42.87;;;30.33;;
32824;SDS011;51060;42.640;24.356;2023-04-03T06:12:48;36.93;;;27.90;;
32824;SDS011;51060;42.640;24.356;2023-04-03T06:15:14;31.00;;;23.73;;
32824;SDS011;51060;42.640;24.356;2023-04-03T06:17:40;41.87;;;33.13;;
32824;SDS011;51060;42.640;24.356;2023-04-03T06:20:06;39.43;;;34.20;;
32824;SDS011;51060;42.640;24.356;2023-04-03T06:22:32;33.60;;;28.43;;
32824;SDS011;51060;42.640;24.356;2023-04-03T06:24:58;35.67;;;30.00;;
32824;SDS011;51060;42.640;24.356;2023-04-03T06:27:23;36.63;;;31.10;;
32824;SDS011;51060;42.640;24.356;2023-04-03T06:29:49;50.37;;;40.23;;
32824;SDS011;51060;42.640;24.356;2023-04-03T06:32:15;48.43;;;38.83;;
32824;SDS011;51060;42.640;24.356;2023-04-03T06:34:41;46.23;;;38.87;;
32824;SDS011;51060;42.640;24.356;2023-04-03T06:37:28;54.77;;;45.90;;
32824;SDS011;51060;42.640;24.356;2023-04-03T06:39:54;72.53;;;57.47;;
32824;SDS011;51060;42.640;24.356;2023-04-03T06:42:19;80.33;;;60.37;;
32824;SDS011;51060;42.640;24.356;2023-04-03T06:44:45;88.07;;;66.97;;
32824;SDS011;51060;42.640;24.356;2023-04-03T06:47:12;98.37;;;72.60;;
32824;SDS011;51060;42.640;24.356;2023-04-03T06:49:38;56.17;;;42.43;;
32824;SDS011;51060;42.640;24.356;2023-04-03T06:52:04;53.83;;;43.53;;
32824;SDS011;51060;42.640;24.356;2023-04-03T06:54:30;55.23;;;43.67;;
32824;SDS011;51060;42.640;24.356;2023-04-03T06:56:56;62.23;;;49.10;;
32824;SDS011;51060;42.640;24.356;2023-04-03T06:59:22;77.47;;;57.90;;
32824;SDS011;51060;42.640;24.356;2023-04-03T07:01:48;95.77;;;70.80;;
32824;SDS011;51060;42.640;24.356;2023-04-03T07:04:14;107.70;;;81.80;;
32824;SDS011;51060;42.640;24.356;2023-04-03T07:06:40;87.87;;;63.30;;
32824;SDS011;51060;42.640;24.356;2023-04-03T07:09:07;70.80;;;50.30;;
32824;SDS011;51060;42.640;24.356;2023-04-03T07:11:32;63.63;;;45.87;;
32824;SDS011;51060;42.640;24.356;2023-04-03T07:13:58;57.07;;;43.17;;
32824;SDS011;51060;42.640;24.356;2023-04-03T07:16:24;58.40;;;44.07;;
32824;SDS011;51060;42.640;24.356;2023-04-03T07:18:49;60.17;;;46.13;;
32824;SDS011;51060;42.640;24.356;2023-04-03T07:21:16;64.60;;;47.97;;
32824;SDS011;51060;42.640;24.356;2023-04-03T07:23:41;69.77;;;51.57;;
32824;SDS011;51060;42.640;24.356;2023-04-03T07:26:07;64.30;;;49.77;;
32824;SDS011;51060;42.640;24.356;2023-04-03T07:28:33;56.60;;;46.23;;
32824;SDS011;51060;42.640;24.356;2023-04-03T07:31:00;54.33;;;39.77;;
32824;SDS011;51060;42.640;24.356;2023-04-03T07:33:26;51.47;;;40.87;;
32824;SDS011;51060;42.640;24.356;2023-04-03T07:35:52;50.47;;;40.37;;
32824;SDS011;51060;42.640;24.356;2023-04-03T07:38:18;52.83;;;40.30;;
32824;SDS011;51060;42.640;24.356;2023-04-03T07:40:47;41.80;;;32.50;;
32824;SDS011;51060;42.640;24.356;2023-04-03T07:43:14;35.50;;;28.90;;
32824;SDS011;51060;42.640;24.356;2023-04-03T07:45:40;39.20;;;30.90;;
32824;SDS011;51060;42.640;24.356;2023-04-03T07:48:06;38.07;;;31.13;;
32824;SDS011;51060;42.640;24.356;2023-04-03T07:50:32;25.70;;;21.37;;
32824;SDS011;51060;42.640;24.356;2023-04-03T07:52:57;32.50;;;25.67;;
32824;SDS011;51060;42.640;24.356;2023-04-03T07:55:23;20.33;;;15.63;;
32824;SDS011;51060;42.640;24.356;2023-04-03T07:57:49;20.27;;;16.27;;
32824;SDS011;51060;42.640;24.356;2023-04-03T08:00:15;29.97;;;22.30;;
32824;SDS011;51060;42.640;24.356;2023-04-03T08:02:43;21.90;;;17.17;;
32824;SDS011;51060;42.640;24.356;2023-04-03T08:05:09;27.87;;;21.13;;
32824;SDS011;51060;42.640;24.356;2023-04-03T08:07:36;25.40;;;18.50;;
32824;SDS011;51060;42.640;24.356;2023-04-03T08:10:03;20.73;;;14.83;;
32824;SDS011;51060;42.640;24.356;2023-04-03T08:12:29;18.87;;;14.10;;
32824;SDS011;51060;42.640;24.356;2023-04-03T08:14:55;16.77;;;13.13;;
32824;SDS011;51060;42.640;24.356;2023-04-03T08:17:20;19.37;;;13.70;;
32824;SDS011;51060;42.640;24.356;2023-04-03T08:19:46;15.37;;;11.70;;
32824;SDS011;51060;42.640;24.356;2023-04-03T08:22:12;3.73;;;3.30;;
32824;SDS011;51060;42.640;24.356;2023-04-03T08:24:38;4.13;;;2.90;;
32824;SDS011;51060;42.640;24.356;2023-04-03T08:27:03;3.03;;;1.70;;
32824;SDS011;51060;42.640;24.356;2023-04-03T08:29:29;1.67;;;1.50;;
32824;SDS011;51060;42.640;24.356;2023-04-03T08:31:55;5.30;;;3.30;;
32824;SDS011;51060;42.640;24.356;2023-04-03T08:34:20;4.97;;;3.13;;
32824;SDS011;51060;42.640;24.356;2023-04-03T08:36:46;6.17;;;3.77;;
32824;SDS011;51060;42.640;24.356;2023-04-03T08:39:12;6.10;;;3.80;;
32824;SDS011;51060;42.640;24.356;2023-04-03T08:49:56;2.77;;;2.20;;
32824;SDS011;51060;42.640;24.356;2023-04-03T08:54:52;5.97;;;4.63;;
32824;SDS011;51060;42.640;24.356;2023-04-03T08:57:24;7.03;;;4.97;;
32824;SDS011;51060;42.640;24.356;2023-04-03T08:59:57;5.17;;;4.03;;
32824;SDS011;51060;42.640;24.356;2023-04-03T09:02:29;5.83;;;4.00;;
32824;SDS011;51060;42.640;24.356;2023-04-03T09:04:58;4.40;;;3.47;;
32824;SDS011;51060;42.640;24.356;2023-04-03T09:07:31;4.03;;;3.23;;
32824;SDS011;51060;42.640;24.356;2023-04-03T09:10:02;2.67;;;2.43;;
32824;SDS011;51060;42.640;24.356;2023-04-03T09:12:32;4.20;;;3.60;;
32824;SDS011;51060;42.640;24.356;2023-04-03T09:22:43;2.30;;;2.10;;
32824;SDS011;51060;42.640;24.356;2023-04-03T09:25:17;2.70;;;1.93;;
32824;SDS011;51060;42.640;24.356;2023-04-03T09:28:00;1.53;;;1.40;;
32824;SDS011;51060;42.640;24.356;2023-04-03T09:30:27;1.77;;;1.67;;
32824;SDS011;51060;42.640;24.356;2023-04-03T09:32:54;2.27;;;1.87;;
32824;SDS011;51060;42.640;24.356;2023-04-03T09:40:36;4.00;;;3.17;;
32824;SDS011;51060;42.640;24.356;2023-04-03T09:43:37;3.80;;;3.50;;
32824;SDS011;51060;42.640;24.356;2023-04-03T09:46:15;2.83;;;1.90;;
32824;SDS011;51060;42.640;24.356;2023-04-03T09:49:02;6.07;;;4.27;;
32824;SDS011;51060;42.640;24.356;2023-04-03T09:51:29;7.93;;;6.07;;
32824;SDS011;51060;42.640;24.356;2023-04-03T09:53:56;19.83;;;12.87;;
32824;SDS011;51060;42.640;24.356;2023-04-03T09:56:23;16.67;;;11.30;;
32824;SDS011;51060;42.640;24.356;2023-04-03T10:04:03;3.67;;;2.73;;
32824;SDS011;51060;42.640;24.356;2023-04-03T10:06:30;1.83;;;1.70;;
32824;SDS011;51060;42.640;24.356;2023-04-03T10:09:14;2.30;;;2.10;;
32824;SDS011;51060;42.640;24.356;2023-04-03T10:14:34;3.80;;;3.10;;
32824;SDS011;51060;42.640;24.356;2023-04-03T10:23:15;5.13;;;3.87;;
32824;SDS011;51060;42.640;24.356;2023-04-03T10:26:08;4.63;;;3.17;;
32824;SDS011;51060;42.640;24.356;2023-04-03T10:31:49;8.53;;;6.17;;
32824;SDS011;51060;42.640;24.356;2023-04-03T10:45:22;1.80;;;1.63;;
32824;SDS011;51060;42.640;24.356;2023-04-03T10:53:50;3.20;;;2.87;;
32824;SDS011;51060;42.640;24.356;2023-04-03T10:58:57;7.67;;;5.77;;
32824;SDS011;51060;42.640;24.356;2023-04-03T11:01:30;5.83;;;4.87;;
32824;SDS011;51060;42.640;24.356;2023-04-03T11:03:59;10.63;;;7.50;;
32824;SDS011;51060;42.640;24.356;2023-04-03T11:06:26;8.77;;;5.50;;
32824;SDS011;51060;42.640;24.356;2023-04-03T11:09:05;7.50;;;6.03;;
32824;SDS011;51060;42.640;24.356;2023-04-03T11:11:37;7.23;;;5.43;;
32824;SDS011;51060;42.640;24.356;2023-04-03T11:16:45;9.03;;;6.53;;
32824;SDS011;51060;42.640;24.356;2023-04-03T11:24:25;7.40;;;6.07;;
32824;SDS011;51060;42.640;24.356;2023-04-03T11:26:53;8.20;;;6.50;;
32824;SDS011;51060;42.640;24.356;2023-04-03T11:29:24;7.23;;;5.13;;
32824;SDS011;51060;42.640;24.356;2023-04-03T11:34:47;6.93;;;5.27;;
32824;SDS011;51060;42.640;24.356;2023-04-03T11:42:54;6.73;;;6.00;;
32824;SDS011;51060;42.640;24.356;2023-04-03T11:48:03;12.43;;;9.40;;
32824;SDS011;51060;42.640;24.356;2023-04-03T11:50:56;16.70;;;11.33;;
32824;SDS011;51060;42.640;24.356;2023-04-03T11:55:57;21.70;;;16.43;;
32824;SDS011;51060;42.640;24.356;2023-04-03T11:58:29;14.07;;;10.80;;
32824;SDS011;51060;42.640;24.356;2023-04-03T12:01:42;19.83;;;13.93;;
32824;SDS011;51060;42.640;24.356;2023-04-03T12:04:07;8.97;;;6.37;;
32824;SDS011;51060;42.640;24.356;2023-04-03T12:09:00;8.37;;;7.50;;
32824;SDS011;51060;42.640;24.356;2023-04-03T12:16:23;7.87;;;7.17;;
32824;SDS011;51060;42.640;24.356;2023-04-03T12:45:43;3.93;;;3.53;;
32824;SDS011;51060;42.640;24.356;2023-04-03T12:48:16;6.97;;;5.23;;
32824;SDS011;51060;42.640;24.356;2023-04-03T12:50:44;9.50;;;7.23;;
32824;SDS011;51060;42.640;24.356;2023-04-03T12:53:18;10.47;;;8.83;;
32824;SDS011;51060;42.640;24.356;2023-04-03T12:55:45;11.30;;;9.13;;
32824;SDS011;51060;42.640;24.356;2023-04-03T12:58:16;7.90;;;6.43;;
32824;SDS011;51060;42.640;24.356;2023-04-03T13:00:46;5.50;;;5.00;;
32824;SDS011;51060;42.640;24.356;2023-04-03T13:03:25;6.00;;;4.53;;
32824;SDS011;51060;42.640;24.356;2023-04-03T13:05:56;6.60;;;6.00;;
32824;SDS011;51060;42.640;24.356;2023-04-03T13:08:24;5.17;;;4.40;;
32824;SDS011;51060;42.640;24.356;2023-04-03T13:11:03;4.17;;;3.73;;
32824;SDS011;51060;42.640;24.356;2023-04-03T13:13:31;5.70;;;4.77;;
32824;SDS011;51060;42.640;24.356;2023-04-03T13:15:57;3.50;;;3.20;;
32824;SDS011;51060;42.640;24.356;2023-04-03T13:18:27;4.23;;;3.60;;
32824;SDS011;51060;42.640;24.356;2023-04-03T13:20:54;6.47;;;5.30;;
32824;SDS011;51060;42.640;24.356;2023-04-03T13:23:24;4.97;;;4.40;;
32824;SDS011;51060;42.640;24.356;2023-04-03T13:25:50;4.37;;;3.97;;
32824;SDS011;51060;42.640;24.356;2023-04-03T13:28:20;6.77;;;6.07;;
32824;SDS011;51060;42.640;24.356;2023-04-03T13:33:38;6.87;;;5.60;;
32824;SDS011;51060;42.640;24.356;2023-04-03T13:36:20;6.20;;;4.17;;
32824;SDS011;51060;42.640;24.356;2023-04-03T13:41:52;4.57;;;3.97;;
32824;SDS011;51060;42.640;24.356;2023-04-03T13:46:49;6.90;;;5.33;;
32824;SDS011;51060;42.640;24.356;2023-04-03T13:49:39;3.13;;;2.83;;
32824;SDS011;51060;42.640;24.356;2023-04-03T13:52:23;3.40;;;3.10;;
32824;SDS011;51060;42.640;24.356;2023-04-03T13:55:15;6.40;;;5.63;;
32824;SDS011;51060;42.640;24.356;2023-04-03T13:57:51;4.30;;;3.90;;
32824;SDS011;51060;42.640;24.356;2023-04-03T14:02:56;10.93;;;8.30;;
32824;SDS011;51060;42.640;24.356;2023-04-03T14:05:23;11.73;;;9.00;;
32824;SDS011;51060;42.640;24.356;2023-04-03T14:07:50;5.00;;;3.97;;
32824;SDS011;51060;42.640;24.356;2023-04-03T14:10:16;3.23;;;2.93;;
32824;SDS011;51060;42.640;24.356;2023-04-03T14:12:42;4.53;;;3.27;;
32824;SDS011;51060;42.640;24.356;2023-04-03T14:15:15;6.10;;;5.20;;
32824;SDS011;51060;42.640;24.356;2023-04-03T14:17:49;9.50;;;8.20;;
32824;SDS011;51060;42.640;24.356;2023-04-03T14:20:17;8.77;;;5.77;;
32824;SDS011;51060;42.640;24.356;2023-04-03T14:22:47;4.53;;;3.50;;
32824;SDS011;51060;42.640;24.356;2023-04-03T14:25:13;5.03;;;4.03;;
32824;SDS011;51060;42.640;24.356;2023-04-03T14:27:41;5.17;;;4.67;;
32824;SDS011;51060;42.640;24.356;2023-04-03T14:30:11;3.50;;;3.20;;
32824;SDS011;51060;42.640;24.356;2023-04-03T14:32:39;5.43;;;4.00;;
32824;SDS011;51060;42.640;24.356;2023-04-03T14:35:05;8.33;;;6.67;;
32824;SDS011;51060;42.640;24.356;2023-04-03T14:37:32;6.67;;;5.23;;
32824;SDS011;51060;42.640;24.356;2023-04-03T14:39:58;9.20;;;7.37;;
32824;SDS011;51060;42.640;24.356;2023-04-03T14:42:27;7.07;;;5.87;;
32824;SDS011;51060;42.640;24.356;2023-04-03T14:44:57;14.13;;;11.90;;
32824;SDS011;51060;42.640;24.356;2023-04-03T14:47:24;4.33;;;3.93;;
32824;SDS011;51060;42.640;24.356;2023-04-03T14:49:52;6.43;;;4.77;;
32824;SDS011;51060;42.640;24.356;2023-04-03T14:52:20;3.80;;;3.40;;
32824;SDS011;51060;42.640;24.356;2023-04-03T14:54:48;5.70;;;4.87;;
32824;SDS011;51060;42.640;24.356;2023-04-03T14:57:15;3.37;;;3.07;;
32824;SDS011;51060;42.640;24.356;2023-04-03T14:59:41;4.47;;;4.07;;
32824;SDS011;51060;42.640;24.356;2023-04-03T15:02:27;3.17;;;2.50;;
32824;SDS011;51060;42.640;24.356;2023-04-03T15:05:02;4.77;;;3.40;;
32824;SDS011;51060;42.640;24.356;2023-04-03T15:07:31;11.00;;;9.23;;
32824;SDS011;51060;42.640;24.356;2023-04-03T15:10:02;10.47;;;8.37;;
32824;SDS011;51060;42.640;24.356;2023-04-03T15:12:35;24.27;;;15.27;;
32824;SDS011;51060;42.640;24.356;2023-04-03T15:15:00;25.10;;;18.83;;
32824;SDS011;51060;42.640;24.356;2023-04-03T15:17:26;11.80;;;9.60;;
32824;SDS011;51060;42.640;24.356;2023-04-03T15:19:52;20.13;;;15.37;;
32824;SDS011;51060;42.640;24.356;2023-04-03T15:22:18;23.00;;;18.20;;
32824;SDS011;51060;42.640;24.356;2023-04-03T15:24:44;30.27;;;23.70;;
32824;SDS011;51060;42.640;24.356;2023-04-03T15:27:11;44.97;;;37.80;;
32824;SDS011;51060;42.640;24.356;2023-04-03T15:29:38;71.03;;;63.23;;
32824;SDS011;51060;42.640;24.356;2023-04-03T15:32:04;30.17;;;24.77;;
32824;SDS011;51060;42.640;24.356;2023-04-03T15:34:30;19.23;;;16.30;;
32824;SDS011;51060;42.640;24.356;2023-04-03T15:36:56;24.97;;;18.83;;
32824;SDS011;51060;42.640;24.356;2023-04-03T15:39:21;25.60;;;18.77;;
32824;SDS011;51060;42.640;24.356;2023-04-03T15:41:48;19.80;;;15.97;;
32824;SDS011;51060;42.640;24.356;2023-04-03T15:44:14;19.60;;;14.40;;
32824;SDS011;51060;42.640;24.356;2023-04-03T15:46:42;18.33;;;15.07;;
32824;SDS011;51060;42.640;24.356;2023-04-03T15:49:08;18.53;;;13.70;;
32824;SDS011;51060;42.640;24.356;2023-04-03T15:51:34;19.43;;;13.37;;
32824;SDS011;51060;42.640;24.356;2023-04-03T15:54:00;21.20;;;14.03;;
32824;SDS011;51060;42.640;24.356;2023-04-03T15:56:26;27.80;;;20.23;;
32824;SDS011;51060;42.640;24.356;2023-04-03T15:58:52;36.57;;;27.30;;
32824;SDS011;51060;42.640;24.356;2023-04-03T16:01:18;19.27;;;15.50;;
32824;SDS011;51060;42.640;24.356;2023-04-03T16:03:44;17.07;;;14.43;;
32824;SDS011;51060;42.640;24.356;2023-04-03T16:06:14;14.27;;;11.17;;
32824;SDS011;51060;42.640;24.356;2023-04-03T16:08:40;11.67;;;8.93;;
32824;SDS011;51060;42.640;24.356;2023-04-03T16:11:06;7.53;;;6.77;;
32824;SDS011;51060;42.640;24.356;2023-04-03T16:13:32;6.60;;;5.40;;
32824;SDS011;51060;42.640;24.356;2023-04-03T16:15:58;16.80;;;13.40;;
32824;SDS011;51060;42.640;24.356;2023-04-03T16:18:25;6.30;;;5.20;;
32824;SDS011;51060;42.640;24.356;2023-04-03T16:20:51;29.63;;;25.10;;
32824;SDS011;51060;42.640;24.356;2023-04-03T16:23:16;35.30;;;28.80;;
32824;SDS011;51060;42.640;24.356;2023-04-03T16:25:42;19.47;;;16.20;;
32824;SDS011;51060;42.640;24.356;2023-04-03T16:28:14;5.60;;;4.93;;
32824;SDS011;51060;42.640;24.356;2023-04-03T16:30:40;10.27;;;8.77;;
32824;SDS011;51060;42.640;24.356;2023-04-03T16:33:06;8.77;;;7.27;;
32824;SDS011;51060;42.640;24.356;2023-04-03T16:35:32;3.67;;;3.13;;
32824;SDS011;51060;42.640;24.356;2023-04-03T16:37:57;3.53;;;3.23;;
32824;SDS011;51060;42.640;24.356;2023-04-03T16:40:23;3.70;;;2.50;;
32824;SDS011;51060;42.640;24.356;2023-04-03T16:42:49;3.70;;;3.10;;